sensor_id;sensor_type;location;lat;lon;timestamp;P1;durP1;ratioP1;P2;durP2;ratioP2
61638;SDS011;47544;52.484;4.658;2023-06-14T00:00:02;8.10;;;3.60;;
61638;SDS011;47544;52.484;4.658;2023-06-14T00:00:20;7.18;;;3.58;;
61638;SDS011;47544;52.484;4.658;2023-06-14T00:00:43;6.90;;;3.40;;
61638;SDS011;47544;52.484;4.658;2023-06-14T00:00:56;6.50;;;3.35;;
61638;SDS011;47544;52.484;4.658;2023-06-14T00:01:08;5.60;;;3.20;;
61638;SDS011;47544;52.484;4.658;2023-06-14T00:01:20;5.60;;;3.03;;
61638;SDS011;47544;52.484;4.658;2023-06-14T00:01:42;6.32;;;3.15;;
61638;SDS011;47544;52.484;4.658;2023-06-14T00:01:56;5.60;;;3.30;;
61638;SDS011;47544;52.484;4.658;2023-06-14T00:02:07;6.13;;;3.50;;
61638;SDS011;47544;52.484;4.658;2023-06-14T00:02:19;5.88;;;3.50;;
61638;SDS011;47544;52.484;4.658;2023-06-14T00:02:31;7.22;;;3.78;;
61638;SDS011;47544;52.484;4.658;2023-06-14T00:02:46;9.68;;;3.72;;
61638;SDS011;47544;52.484;4.658;2023-06-14T00:02:57;10.38;;;3.72;;
61638;SDS011;47544;52.484;4.658;2023-06-14T00:03:09;9.95;;;3.70;;
61638;SDS011;47544;52.484;4.658;2023-06-14T00:03:22;7.03;;;3.42;;
61638;SDS011;47544;52.484;4.658;2023-06-14T00:03:37;5.55;;;3.22;;
61638;SDS011;47544;52.484;4.658;2023-06-14T00:04:30;6.60;;;3.50;;
61638;SDS011;47544;52.484;4.658;2023-06-14T00:04:42;7.18;;;3.40;;
61638;SDS011;47544;52.484;4.658;2023-06-14T00:04:58;7.45;;;3.65;;
61638;SDS011;47544;52.484;4.658;2023-06-14T00:05:10;7.30;;;3.70;;
61638;SDS011;47544;52.484;4.658;2023-06-14T00:05:23;6.90;;;3.45;;
61638;SDS011;47544;52.484;4.658;2023-06-14T00:05:34;7.28;;;3.25;;
61638;SDS011;47544;52.484;4.658;2023-06-14T00:05:52;7.13;;;3.42;;
61638;SDS011;47544;52.484;4.658;2023-06-14T00:06:04;6.68;;;3.83;;
61638;SDS011;47544;52.484;4.658;2023-06-14T00:06:23;8.40;;;3.80;;
61638;SDS011;47544;52.484;4.658;2023-06-14T00:06:35;7.85;;;3.70;;
61638;SDS011;47544;52.484;4.658;2023-06-14T00:06:46;5.85;;;3.60;;
61638;SDS011;47544;52.484;4.658;2023-06-14T00:06:58;7.50;;;3.63;;
61638;SDS011;47544;52.484;4.658;2023-06-14T00:07:14;7.43;;;3.30;;
61638;SDS011;47544;52.484;4.658;2023-06-14T00:07:33;6.70;;;3.30;;
61638;SDS011;47544;52.484;4.658;2023-06-14T00:07:44;7.75;;;3.83;;
61638;SDS011;47544;52.484;4.658;2023-06-14T00:07:59;7.78;;;3.72;;
61638;SDS011;47544;52.484;4.658;2023-06-14T00:08:13;6.72;;;3.60;;
61638;SDS011;47544;52.484;4.658;2023-06-14T00:08:25;7.93;;;3.53;;
61638;SDS011;47544;52.484;4.658;2023-06-14T00:08:36;8.18;;;3.63;;
61638;SDS011;47544;52.484;4.658;2023-06-14T00:08:50;7.80;;;3.83;;
61638;SDS011;47544;52.484;4.658;2023-06-14T00:09:01;8.93;;;4.15;;
61638;SDS011;47544;52.484;4.658;2023-06-14T00:09:12;9.32;;;3.83;;
61638;SDS011;47544;52.484;4.658;2023-06-14T00:09:25;9.18;;;3.60;;
61638;SDS011;47544;52.484;4.658;2023-06-14T00:09:36;9.13;;;3.50;;
61638;SDS011;47544;52.484;4.658;2023-06-14T00:09:50;7.97;;;3.55;;
61638;SDS011;47544;52.484;4.658;2023-06-14T00:10:01;6.85;;;3.40;;
61638;SDS011;47544;52.484;4.658;2023-06-14T00:10:12;6.00;;;3.30;;
61638;SDS011;47544;52.484;4.658;2023-06-14T00:10:26;5.38;;;3.30;;
61638;SDS011;47544;52.484;4.658;2023-06-14T00:10:43;5.70;;;3.45;;
61638;SDS011;47544;52.484;4.658;2023-06-14T00:10:55;6.40;;;3.50;;
61638;SDS011;47544;52.484;4.658;2023-06-14T00:11:07;8.55;;;3.60;;
61638;SDS011;47544;52.484;4.658;2023-06-14T00:11:30;8.18;;;3.50;;
61638;SDS011;47544;52.484;4.658;2023-06-14T00:11:41;6.10;;;3.40;;
61638;SDS011;47544;52.484;4.658;2023-06-14T00:11:57;5.78;;;3.30;;
61638;SDS011;47544;52.484;4.658;2023-06-14T00:12:08;7.20;;;3.50;;
61638;SDS011;47544;52.484;4.658;2023-06-14T00:12:26;8.25;;;3.47;;
61638;SDS011;47544;52.484;4.658;2023-06-14T00:12:37;7.20;;;3.60;;
61638;SDS011;47544;52.484;4.658;2023-06-14T00:12:52;5.88;;;3.80;;
61638;SDS011;47544;52.484;4.658;2023-06-14T00:13:04;5.53;;;3.70;;
61638;SDS011;47544;52.484;4.658;2023-06-14T00:13:23;8.10;;;3.78;;
61638;SDS011;47544;52.484;4.658;2023-06-14T00:13:34;10.10;;;3.70;;
61638;SDS011;47544;52.484;4.658;2023-06-14T00:13:48;7.95;;;3.53;;
61638;SDS011;47544;52.484;4.658;2023-06-14T00:14:00;7.18;;;3.50;;
61638;SDS011;47544;52.484;4.658;2023-06-14T00:14:17;6.95;;;3.50;;
61638;SDS011;47544;52.484;4.658;2023-06-14T00:14:28;8.27;;;3.58;;
61638;SDS011;47544;52.484;4.658;2023-06-14T00:14:40;7.53;;;3.60;;
61638;SDS011;47544;52.484;4.658;2023-06-14T00:14:52;8.07;;;3.80;;
61638;SDS011;47544;52.484;4.658;2023-06-14T00:15:03;7.93;;;3.80;;
61638;SDS011;47544;52.484;4.658;2023-06-14T00:15:16;5.65;;;3.58;;
61638;SDS011;47544;52.484;4.658;2023-06-14T00:15:28;5.07;;;3.42;;
61638;SDS011;47544;52.484;4.658;2023-06-14T00:15:39;6.18;;;3.40;;
61638;SDS011;47544;52.484;4.658;2023-06-14T00:15:51;6.55;;;3.30;;
61638;SDS011;47544;52.484;4.658;2023-06-14T00:16:05;6.43;;;3.47;;
61638;SDS011;47544;52.484;4.658;2023-06-14T00:16:19;5.72;;;3.60;;
61638;SDS011;47544;52.484;4.658;2023-06-14T00:16:41;5.47;;;3.47;;
61638;SDS011;47544;52.484;4.658;2023-06-14T00:16:54;5.55;;;3.40;;
61638;SDS011;47544;52.484;4.658;2023-06-14T00:17:09;6.77;;;3.27;;
61638;SDS011;47544;52.484;4.658;2023-06-14T00:17:20;6.40;;;3.20;;
61638;SDS011;47544;52.484;4.658;2023-06-14T00:17:31;7.32;;;3.42;;
61638;SDS011;47544;52.484;4.658;2023-06-14T00:17:42;7.07;;;3.67;;
61638;SDS011;47544;52.484;4.658;2023-06-14T00:17:55;7.25;;;3.75;;
61638;SDS011;47544;52.484;4.658;2023-06-14T00:18:08;6.97;;;3.85;;
61638;SDS011;47544;52.484;4.658;2023-06-14T00:18:22;6.28;;;3.80;;
61638;SDS011;47544;52.484;4.658;2023-06-14T00:18:36;5.50;;;3.67;;
61638;SDS011;47544;52.484;4.658;2023-06-14T00:18:51;5.07;;;3.50;;
61638;SDS011;47544;52.484;4.658;2023-06-14T00:19:02;5.80;;;3.60;;
61638;SDS011;47544;52.484;4.658;2023-06-14T00:19:15;6.68;;;3.80;;
61638;SDS011;47544;52.484;4.658;2023-06-14T00:19:28;5.95;;;3.50;;
61638;SDS011;47544;52.484;4.658;2023-06-14T00:19:40;5.53;;;3.40;;
61638;SDS011;47544;52.484;4.658;2023-06-14T00:19:52;7.88;;;3.65;;
61638;SDS011;47544;52.484;4.658;2023-06-14T00:20:03;7.72;;;3.65;;
61638;SDS011;47544;52.484;4.658;2023-06-14T00:20:16;7.18;;;3.83;;
61638;SDS011;47544;52.484;4.658;2023-06-14T00:20:27;6.70;;;3.67;;
61638;SDS011;47544;52.484;4.658;2023-06-14T00:20:41;8.25;;;3.70;;
61638;SDS011;47544;52.484;4.658;2023-06-14T00:20:53;8.40;;;3.50;;
61638;SDS011;47544;52.484;4.658;2023-06-14T00:21:04;7.88;;;3.50;;
61638;SDS011;47544;52.484;4.658;2023-06-14T00:21:15;6.82;;;3.60;;
61638;SDS011;47544;52.484;4.658;2023-06-14T00:21:27;6.30;;;3.58;;
61638;SDS011;47544;52.484;4.658;2023-06-14T00:21:42;5.82;;;3.60;;
61638;SDS011;47544;52.484;4.658;2023-06-14T00:21:56;6.03;;;3.40;;
61638;SDS011;47544;52.484;4.658;2023-06-14T00:22:10;6.82;;;3.33;;
61638;SDS011;47544;52.484;4.658;2023-06-14T00:22:23;7.55;;;3.30;;
61638;SDS011;47544;52.484;4.658;2023-06-14T00:22:41;7.63;;;3.50;;
61638;SDS011;47544;52.484;4.658;2023-06-14T00:22:52;7.28;;;3.70;;
61638;SDS011;47544;52.484;4.658;2023-06-14T00:23:07;8.32;;;3.78;;
61638;SDS011;47544;52.484;4.658;2023-06-14T00:23:18;7.70;;;3.63;;
61638;SDS011;47544;52.484;4.658;2023-06-14T00:23:31;7.38;;;3.70;;
61638;SDS011;47544;52.484;4.658;2023-06-14T00:23:42;7.10;;;3.45;;
61638;SDS011;47544;52.484;4.658;2023-06-14T00:23:58;6.18;;;3.30;;
61638;SDS011;47544;52.484;4.658;2023-06-14T00:24:10;5.80;;;3.10;;
61638;SDS011;47544;52.484;4.658;2023-06-14T00:24:21;5.47;;;3.35;;
61638;SDS011;47544;52.484;4.658;2023-06-14T00:24:32;6.10;;;3.47;;
61638;SDS011;47544;52.484;4.658;2023-06-14T00:24:44;6.40;;;3.50;;
61638;SDS011;47544;52.484;4.658;2023-06-14T00:24:56;6.63;;;3.40;;
61638;SDS011;47544;52.484;4.658;2023-06-14T00:25:09;6.97;;;3.50;;
61638;SDS011;47544;52.484;4.658;2023-06-14T00:25:22;6.68;;;3.50;;
61638;SDS011;47544;52.484;4.658;2023-06-14T00:25:33;5.47;;;3.42;;
61638;SDS011;47544;52.484;4.658;2023-06-14T00:25:45;6.15;;;3.30;;
61638;SDS011;47544;52.484;4.658;2023-06-14T00:26:00;7.97;;;3.35;;
61638;SDS011;47544;52.484;4.658;2023-06-14T00:26:11;9.73;;;3.50;;
61638;SDS011;47544;52.484;4.658;2023-06-14T00:26:22;8.38;;;3.35;;
61638;SDS011;47544;52.484;4.658;2023-06-14T00:26:34;7.63;;;3.40;;
61638;SDS011;47544;52.484;4.658;2023-06-14T00:26:48;7.32;;;3.70;;
61638;SDS011;47544;52.484;4.658;2023-06-14T00:26:59;7.40;;;3.83;;
61638;SDS011;47544;52.484;4.658;2023-06-14T00:27:10;7.55;;;3.63;;
61638;SDS011;47544;52.484;4.658;2023-06-14T00:27:23;7.65;;;3.40;;
61638;SDS011;47544;52.484;4.658;2023-06-14T00:27:34;6.95;;;3.25;;
61638;SDS011;47544;52.484;4.658;2023-06-14T00:27:45;8.02;;;3.70;;
61638;SDS011;47544;52.484;4.658;2023-06-14T00:27:56;7.07;;;3.63;;
61638;SDS011;47544;52.484;4.658;2023-06-14T00:28:08;7.18;;;3.55;;
61638;SDS011;47544;52.484;4.658;2023-06-14T00:28:19;7.60;;;3.42;;
61638;SDS011;47544;52.484;4.658;2023-06-14T00:28:32;7.78;;;3.55;;
61638;SDS011;47544;52.484;4.658;2023-06-14T00:28:43;6.82;;;3.60;;
61638;SDS011;47544;52.484;4.658;2023-06-14T00:28:54;7.35;;;3.72;;
61638;SDS011;47544;52.484;4.658;2023-06-14T00:29:06;7.90;;;3.70;;
61638;SDS011;47544;52.484;4.658;2023-06-14T00:29:17;6.45;;;3.55;;
61638;SDS011;47544;52.484;4.658;2023-06-14T00:29:28;5.10;;;3.50;;
61638;SDS011;47544;52.484;4.658;2023-06-14T00:29:43;5.05;;;3.40;;
61638;SDS011;47544;52.484;4.658;2023-06-14T00:29:57;6.75;;;3.67;;
61638;SDS011;47544;52.484;4.658;2023-06-14T00:30:21;8.30;;;3.85;;
61638;SDS011;47544;52.484;4.658;2023-06-14T00:30:32;8.43;;;3.78;;
61638;SDS011;47544;52.484;4.658;2023-06-14T00:30:43;7.85;;;3.58;;
61638;SDS011;47544;52.484;4.658;2023-06-14T00:30:57;7.32;;;3.50;;
61638;SDS011;47544;52.484;4.658;2023-06-14T00:31:08;9.75;;;3.80;;
61638;SDS011;47544;52.484;4.658;2023-06-14T00:31:19;9.20;;;3.80;;
61638;SDS011;47544;52.484;4.658;2023-06-14T00:31:30;7.78;;;3.78;;
61638;SDS011;47544;52.484;4.658;2023-06-14T00:31:43;6.90;;;3.47;;
61638;SDS011;47544;52.484;4.658;2023-06-14T00:31:55;6.10;;;3.30;;
61638;SDS011;47544;52.484;4.658;2023-06-14T00:32:12;6.78;;;3.38;;
61638;SDS011;47544;52.484;4.658;2023-06-14T00:32:23;6.75;;;3.60;;
61638;SDS011;47544;52.484;4.658;2023-06-14T00:32:39;7.70;;;3.70;;
61638;SDS011;47544;52.484;4.658;2023-06-14T00:32:53;7.50;;;3.90;;
61638;SDS011;47544;52.484;4.658;2023-06-14T00:33:04;7.22;;;3.75;;
61638;SDS011;47544;52.484;4.658;2023-06-14T00:33:18;6.97;;;3.80;;
61638;SDS011;47544;52.484;4.658;2023-06-14T00:33:29;7.20;;;3.65;;
61638;SDS011;47544;52.484;4.658;2023-06-14T00:33:41;7.75;;;3.58;;
61638;SDS011;47544;52.484;4.658;2023-06-14T00:33:55;7.90;;;3.38;;
61638;SDS011;47544;52.484;4.658;2023-06-14T00:34:06;7.72;;;3.40;;
61638;SDS011;47544;52.484;4.658;2023-06-14T00:34:18;8.02;;;3.50;;
61638;SDS011;47544;52.484;4.658;2023-06-14T00:34:37;7.22;;;3.42;;
61638;SDS011;47544;52.484;4.658;2023-06-14T00:34:55;6.53;;;3.50;;
61638;SDS011;47544;52.484;4.658;2023-06-14T00:35:10;6.10;;;3.40;;
61638;SDS011;47544;52.484;4.658;2023-06-14T00:35:20;8.57;;;3.50;;
61638;SDS011;47544;52.484;4.658;2023-06-14T00:35:31;10.05;;;3.50;;
61638;SDS011;47544;52.484;4.658;2023-06-14T00:35:43;9.65;;;3.50;;
61638;SDS011;47544;52.484;4.658;2023-06-14T00:35:54;7.95;;;3.25;;
61638;SDS011;47544;52.484;4.658;2023-06-14T00:36:05;10.57;;;3.55;;
61638;SDS011;47544;52.484;4.658;2023-06-14T00:36:16;10.25;;;3.60;;
61638;SDS011;47544;52.484;4.658;2023-06-14T00:36:28;7.38;;;3.67;;
61638;SDS011;47544;52.484;4.658;2023-06-14T00:36:41;6.85;;;3.50;;
61638;SDS011;47544;52.484;4.658;2023-06-14T00:36:55;6.80;;;3.40;;
61638;SDS011;47544;52.484;4.658;2023-06-14T00:37:06;6.75;;;3.53;;
61638;SDS011;47544;52.484;4.658;2023-06-14T00:37:18;6.57;;;3.47;;
61638;SDS011;47544;52.484;4.658;2023-06-14T00:37:29;5.80;;;3.40;;
61638;SDS011;47544;52.484;4.658;2023-06-14T00:37:46;5.72;;;3.35;;
61638;SDS011;47544;52.484;4.658;2023-06-14T00:38:00;6.53;;;3.40;;
61638;SDS011;47544;52.484;4.658;2023-06-14T00:38:12;7.22;;;3.67;;
61638;SDS011;47544;52.484;4.658;2023-06-14T00:38:41;7.82;;;3.22;;
61638;SDS011;47544;52.484;4.658;2023-06-14T00:38:54;6.40;;;3.35;;
61638;SDS011;47544;52.484;4.658;2023-06-14T00:39:06;8.30;;;3.30;;
61638;SDS011;47544;52.484;4.658;2023-06-14T00:39:17;8.50;;;3.33;;
61638;SDS011;47544;52.484;4.658;2023-06-14T00:39:28;8.18;;;3.30;;
61638;SDS011;47544;52.484;4.658;2023-06-14T00:39:39;8.68;;;3.30;;
61638;SDS011;47544;52.484;4.658;2023-06-14T00:39:50;9.52;;;3.08;;
61638;SDS011;47544;52.484;4.658;2023-06-14T00:40:01;9.77;;;3.40;;
61638;SDS011;47544;52.484;4.658;2023-06-14T00:40:15;9.18;;;3.75;;
61638;SDS011;47544;52.484;4.658;2023-06-14T00:40:26;8.05;;;3.90;;
61638;SDS011;47544;52.484;4.658;2023-06-14T00:40:38;9.05;;;3.60;;
61638;SDS011;47544;52.484;4.658;2023-06-14T00:40:49;7.25;;;3.35;;
61638;SDS011;47544;52.484;4.658;2023-06-14T00:41:00;8.45;;;3.30;;
61638;SDS011;47544;52.484;4.658;2023-06-14T00:41:11;7.80;;;3.35;;
61638;SDS011;47544;52.484;4.658;2023-06-14T00:41:22;8.75;;;3.70;;
61638;SDS011;47544;52.484;4.658;2023-06-14T00:41:34;7.72;;;3.70;;
61638;SDS011;47544;52.484;4.658;2023-06-14T00:41:45;7.47;;;3.60;;
61638;SDS011;47544;52.484;4.658;2023-06-14T00:41:57;5.85;;;3.30;;
61638;SDS011;47544;52.484;4.658;2023-06-14T00:42:08;5.32;;;3.38;;
61638;SDS011;47544;52.484;4.658;2023-06-14T00:42:26;5.63;;;3.50;;
61638;SDS011;47544;52.484;4.658;2023-06-14T00:42:40;5.95;;;3.55;;
61638;SDS011;47544;52.484;4.658;2023-06-14T00:42:52;7.38;;;3.50;;
61638;SDS011;47544;52.484;4.658;2023-06-14T00:43:05;7.80;;;3.50;;
61638;SDS011;47544;52.484;4.658;2023-06-14T00:43:18;7.53;;;3.67;;
61638;SDS011;47544;52.484;4.658;2023-06-14T00:43:30;6.40;;;3.70;;
61638;SDS011;47544;52.484;4.658;2023-06-14T00:43:41;8.20;;;3.67;;
61638;SDS011;47544;52.484;4.658;2023-06-14T00:43:52;7.68;;;3.40;;
61638;SDS011;47544;52.484;4.658;2023-06-14T00:44:07;6.72;;;3.33;;
61638;SDS011;47544;52.484;4.658;2023-06-14T00:44:19;5.65;;;3.38;;
61638;SDS011;47544;52.484;4.658;2023-06-14T00:44:30;6.20;;;3.50;;
61638;SDS011;47544;52.484;4.658;2023-06-14T00:44:41;7.10;;;3.60;;
61638;SDS011;47544;52.484;4.658;2023-06-14T00:44:52;6.78;;;3.72;;
61638;SDS011;47544;52.484;4.658;2023-06-14T00:45:04;8.13;;;3.77;;
61638;SDS011;47544;52.484;4.658;2023-06-14T00:45:16;7.65;;;3.67;;
61638;SDS011;47544;52.484;4.658;2023-06-14T00:45:29;6.43;;;3.65;;
61638;SDS011;47544;52.484;4.658;2023-06-14T00:45:42;5.82;;;3.55;;
61638;SDS011;47544;52.484;4.658;2023-06-14T00:45:53;6.32;;;3.67;;
61638;SDS011;47544;52.484;4.658;2023-06-14T00:46:05;6.25;;;3.70;;
61638;SDS011;47544;52.484;4.658;2023-06-14T00:46:16;5.75;;;3.70;;
61638;SDS011;47544;52.484;4.658;2023-06-14T00:46:29;6.35;;;3.55;;
61638;SDS011;47544;52.484;4.658;2023-06-14T00:46:47;7.45;;;3.47;;
61638;SDS011;47544;52.484;4.658;2023-06-14T00:47:06;6.07;;;3.50;;
61638;SDS011;47544;52.484;4.658;2023-06-14T00:47:17;5.20;;;3.40;;
61638;SDS011;47544;52.484;4.658;2023-06-14T00:47:28;5.35;;;3.38;;
61638;SDS011;47544;52.484;4.658;2023-06-14T00:47:40;6.10;;;3.30;;
61638;SDS011;47544;52.484;4.658;2023-06-14T00:48:03;6.55;;;3.38;;
61638;SDS011;47544;52.484;4.658;2023-06-14T00:48:18;6.68;;;3.30;;
61638;SDS011;47544;52.484;4.658;2023-06-14T00:48:29;6.50;;;3.40;;
61638;SDS011;47544;52.484;4.658;2023-06-14T00:48:48;7.57;;;3.65;;
61638;SDS011;47544;52.484;4.658;2023-06-14T00:49:02;9.25;;;3.80;;
61638;SDS011;47544;52.484;4.658;2023-06-14T00:49:15;8.18;;;3.70;;
61638;SDS011;47544;52.484;4.658;2023-06-14T00:49:26;6.82;;;3.50;;
61638;SDS011;47544;52.484;4.658;2023-06-14T00:49:37;6.40;;;3.40;;
61638;SDS011;47544;52.484;4.658;2023-06-14T00:49:49;7.25;;;3.50;;
61638;SDS011;47544;52.484;4.658;2023-06-14T00:50:04;7.60;;;3.65;;
61638;SDS011;47544;52.484;4.658;2023-06-14T00:50:29;7.28;;;3.40;;
61638;SDS011;47544;52.484;4.658;2023-06-14T00:51:04;6.88;;;3.30;;
61638;SDS011;47544;52.484;4.658;2023-06-14T00:51:15;6.28;;;3.42;;
61638;SDS011;47544;52.484;4.658;2023-06-14T00:51:29;8.95;;;3.53;;
61638;SDS011;47544;52.484;4.658;2023-06-14T00:51:40;9.00;;;3.60;;
61638;SDS011;47544;52.484;4.658;2023-06-14T00:51:53;6.53;;;3.45;;
61638;SDS011;47544;52.484;4.658;2023-06-14T00:52:04;7.90;;;3.33;;
61638;SDS011;47544;52.484;4.658;2023-06-14T00:52:17;8.23;;;3.42;;
61638;SDS011;47544;52.484;4.658;2023-06-14T00:52:29;7.22;;;3.60;;
61638;SDS011;47544;52.484;4.658;2023-06-14T00:52:43;8.65;;;3.70;;
61638;SDS011;47544;52.484;4.658;2023-06-14T00:52:55;8.52;;;3.63;;
61638;SDS011;47544;52.484;4.658;2023-06-14T00:53:06;7.60;;;3.60;;
61638;SDS011;47544;52.484;4.658;2023-06-14T00:53:17;6.47;;;3.42;;
61638;SDS011;47544;52.484;4.658;2023-06-14T00:53:29;6.63;;;3.50;;
61638;SDS011;47544;52.484;4.658;2023-06-14T00:53:46;6.63;;;3.50;;
61638;SDS011;47544;52.484;4.658;2023-06-14T00:53:57;6.32;;;3.60;;
61638;SDS011;47544;52.484;4.658;2023-06-14T00:54:09;7.32;;;3.53;;
61638;SDS011;47544;52.484;4.658;2023-06-14T00:54:20;7.32;;;3.45;;
61638;SDS011;47544;52.484;4.658;2023-06-14T00:54:35;8.15;;;3.40;;
61638;SDS011;47544;52.484;4.658;2023-06-14T00:54:46;8.48;;;3.35;;
61638;SDS011;47544;52.484;4.658;2023-06-14T00:54:57;7.10;;;3.35;;
61638;SDS011;47544;52.484;4.658;2023-06-14T00:55:08;6.05;;;3.25;;
61638;SDS011;47544;52.484;4.658;2023-06-14T00:55:20;6.45;;;3.45;;
61638;SDS011;47544;52.484;4.658;2023-06-14T00:55:31;7.10;;;3.60;;
61638;SDS011;47544;52.484;4.658;2023-06-14T00:55:48;6.63;;;3.67;;
61638;SDS011;47544;52.484;4.658;2023-06-14T00:56:02;7.20;;;3.47;;
61638;SDS011;47544;52.484;4.658;2023-06-14T00:56:13;6.28;;;3.33;;
61638;SDS011;47544;52.484;4.658;2023-06-14T00:56:26;5.65;;;3.47;;
61638;SDS011;47544;52.484;4.658;2023-06-14T00:56:38;7.13;;;3.60;;
61638;SDS011;47544;52.484;4.658;2023-06-14T00:56:51;8.27;;;3.70;;
61638;SDS011;47544;52.484;4.658;2023-06-14T00:57:02;6.90;;;3.42;;
61638;SDS011;47544;52.484;4.658;2023-06-14T00:57:16;6.32;;;3.40;;
61638;SDS011;47544;52.484;4.658;2023-06-14T00:57:27;5.15;;;3.42;;
61638;SDS011;47544;52.484;4.658;2023-06-14T00:57:40;7.55;;;3.60;;
61638;SDS011;47544;52.484;4.658;2023-06-14T00:57:53;8.90;;;3.65;;
61638;SDS011;47544;52.484;4.658;2023-06-14T00:58:04;8.60;;;3.60;;
61638;SDS011;47544;52.484;4.658;2023-06-14T00:58:17;8.20;;;3.58;;
61638;SDS011;47544;52.484;4.658;2023-06-14T00:58:28;7.93;;;3.40;;
61638;SDS011;47544;52.484;4.658;2023-06-14T00:58:41;7.85;;;3.40;;
61638;SDS011;47544;52.484;4.658;2023-06-14T00:58:53;7.18;;;3.50;;
61638;SDS011;47544;52.484;4.658;2023-06-14T00:59:10;7.63;;;3.60;;
61638;SDS011;47544;52.484;4.658;2023-06-14T00:59:22;7.43;;;3.60;;
61638;SDS011;47544;52.484;4.658;2023-06-14T00:59:33;7.28;;;3.60;;
61638;SDS011;47544;52.484;4.658;2023-06-14T01:00:07;7.13;;;3.55;;
61638;SDS011;47544;52.484;4.658;2023-06-14T01:00:20;6.13;;;3.55;;
61638;SDS011;47544;52.484;4.658;2023-06-14T01:00:31;5.57;;;3.50;;
61638;SDS011;47544;52.484;4.658;2023-06-14T01:00:42;5.40;;;3.58;;
61638;SDS011;47544;52.484;4.658;2023-06-14T01:00:53;5.00;;;3.33;;
61638;SDS011;47544;52.484;4.658;2023-06-14T01:01:06;4.80;;;3.35;;
61638;SDS011;47544;52.484;4.658;2023-06-14T01:01:17;5.43;;;3.53;;
61638;SDS011;47544;52.484;4.658;2023-06-14T01:01:28;5.95;;;3.67;;
61638;SDS011;47544;52.484;4.658;2023-06-14T01:01:39;6.07;;;3.63;;
61638;SDS011;47544;52.484;4.658;2023-06-14T01:01:50;6.05;;;3.50;;
61638;SDS011;47544;52.484;4.658;2023-06-14T01:02:01;6.00;;;3.50;;
61638;SDS011;47544;52.484;4.658;2023-06-14T01:02:31;6.70;;;3.30;;
61638;SDS011;47544;52.484;4.658;2023-06-14T01:02:45;5.88;;;3.60;;
61638;SDS011;47544;52.484;4.658;2023-06-14T01:02:56;5.75;;;3.53;;
61638;SDS011;47544;52.484;4.658;2023-06-14T01:03:08;6.18;;;3.50;;
61638;SDS011;47544;52.484;4.658;2023-06-14T01:03:24;8.90;;;3.55;;
61638;SDS011;47544;52.484;4.658;2023-06-14T01:03:43;7.78;;;3.38;;
61638;SDS011;47544;52.484;4.658;2023-06-14T01:03:55;7.10;;;3.53;;
61638;SDS011;47544;52.484;4.658;2023-06-14T01:04:08;8.52;;;3.65;;
61638;SDS011;47544;52.484;4.658;2023-06-14T01:04:21;7.72;;;3.33;;
61638;SDS011;47544;52.484;4.658;2023-06-14T01:04:34;6.20;;;3.22;;
61638;SDS011;47544;52.484;4.658;2023-06-14T01:04:48;6.43;;;3.40;;
61638;SDS011;47544;52.484;4.658;2023-06-14T01:05:00;6.47;;;3.58;;
61638;SDS011;47544;52.484;4.658;2023-06-14T01:05:12;6.07;;;3.58;;
61638;SDS011;47544;52.484;4.658;2023-06-14T01:05:24;6.80;;;3.50;;
61638;SDS011;47544;52.484;4.658;2023-06-14T01:05:37;6.75;;;3.20;;
61638;SDS011;47544;52.484;4.658;2023-06-14T01:05:48;6.75;;;3.30;;
61638;SDS011;47544;52.484;4.658;2023-06-14T01:06:05;7.85;;;3.40;;
61638;SDS011;47544;52.484;4.658;2023-06-14T01:06:18;8.13;;;3.38;;
61638;SDS011;47544;52.484;4.658;2023-06-14T01:06:39;7.20;;;4.15;;
61638;SDS011;47544;52.484;4.658;2023-06-14T01:06:57;6.53;;;4.28;;
61638;SDS011;47544;52.484;4.658;2023-06-14T01:07:18;6.82;;;4.97;;
61638;SDS011;47544;52.484;4.658;2023-06-14T01:07:38;8.40;;;5.13;;
61638;SDS011;47544;52.484;4.658;2023-06-14T01:07:59;7.70;;;4.65;;
61638;SDS011;47544;52.484;4.658;2023-06-14T01:08:14;8.75;;;4.90;;
61638;SDS011;47544;52.484;4.658;2023-06-14T01:08:30;8.40;;;4.80;;
61638;SDS011;47544;52.484;4.658;2023-06-14T01:08:47;7.93;;;5.20;;
61638;SDS011;47544;52.484;4.658;2023-06-14T01:09:05;8.23;;;4.90;;
61638;SDS011;47544;52.484;4.658;2023-06-14T01:09:18;9.33;;;4.97;;
61638;SDS011;47544;52.484;4.658;2023-06-14T01:10:08;7.22;;;5.10;;
61638;SDS011;47544;52.484;4.658;2023-06-14T01:10:44;8.68;;;4.88;;
61638;SDS011;47544;52.484;4.658;2023-06-14T01:11:12;7.70;;;4.20;;
61638;SDS011;47544;52.484;4.658;2023-06-14T01:11:28;8.13;;;4.43;;
61638;SDS011;47544;52.484;4.658;2023-06-14T01:11:45;8.50;;;4.60;;
61638;SDS011;47544;52.484;4.658;2023-06-14T01:12:13;8.55;;;4.55;;
61638;SDS011;47544;52.484;4.658;2023-06-14T01:12:29;7.15;;;4.18;;
61638;SDS011;47544;52.484;4.658;2023-06-14T01:12:44;8.07;;;4.20;;
61638;SDS011;47544;52.484;4.658;2023-06-14T01:13:04;8.40;;;4.00;;
61638;SDS011;47544;52.484;4.658;2023-06-14T01:13:19;7.30;;;3.78;;
61638;SDS011;47544;52.484;4.658;2023-06-14T01:13:33;6.38;;;3.67;;
61638;SDS011;47544;52.484;4.658;2023-06-14T01:13:53;6.40;;;3.65;;
61638;SDS011;47544;52.484;4.658;2023-06-14T01:14:06;6.35;;;3.60;;
61638;SDS011;47544;52.484;4.658;2023-06-14T01:14:58;8.07;;;3.70;;
61638;SDS011;47544;52.484;4.658;2023-06-14T01:15:47;6.55;;;3.47;;
61638;SDS011;47544;52.484;4.658;2023-06-14T01:15:58;7.97;;;3.30;;
61638;SDS011;47544;52.484;4.658;2023-06-14T01:16:09;7.07;;;3.22;;
61638;SDS011;47544;52.484;4.658;2023-06-14T01:16:21;6.35;;;3.35;;
61638;SDS011;47544;52.484;4.658;2023-06-14T01:16:33;6.38;;;3.47;;
61638;SDS011;47544;52.484;4.658;2023-06-14T01:16:46;6.10;;;3.40;;
61638;SDS011;47544;52.484;4.658;2023-06-14T01:17:05;5.15;;;3.40;;
61638;SDS011;47544;52.484;4.658;2023-06-14T01:17:16;5.05;;;3.22;;
61638;SDS011;47544;52.484;4.658;2023-06-14T01:17:29;5.28;;;3.30;;
61638;SDS011;47544;52.484;4.658;2023-06-14T01:17:42;5.13;;;3.50;;
61638;SDS011;47544;52.484;4.658;2023-06-14T01:17:56;4.53;;;3.20;;
61638;SDS011;47544;52.484;4.658;2023-06-14T01:18:16;5.35;;;3.20;;
61638;SDS011;47544;52.484;4.658;2023-06-14T01:18:28;6.50;;;3.60;;
61638;SDS011;47544;52.484;4.658;2023-06-14T01:18:42;6.70;;;3.47;;
61638;SDS011;47544;52.484;4.658;2023-06-14T01:18:58;7.65;;;3.30;;
61638;SDS011;47544;52.484;4.658;2023-06-14T01:19:11;7.32;;;3.13;;
61638;SDS011;47544;52.484;4.658;2023-06-14T01:19:24;6.78;;;3.20;;
61638;SDS011;47544;52.484;4.658;2023-06-14T01:19:36;6.30;;;3.28;;
61638;SDS011;47544;52.484;4.658;2023-06-14T01:20:03;7.90;;;3.25;;
61638;SDS011;47544;52.484;4.658;2023-06-14T01:20:20;7.25;;;3.35;;
61638;SDS011;47544;52.484;4.658;2023-06-14T01:20:33;8.70;;;3.90;;
61638;SDS011;47544;52.484;4.658;2023-06-14T01:20:48;7.78;;;3.70;;
61638;SDS011;47544;52.484;4.658;2023-06-14T01:21:00;6.43;;;3.40;;
61638;SDS011;47544;52.484;4.658;2023-06-14T01:21:22;5.65;;;3.40;;
61638;SDS011;47544;52.484;4.658;2023-06-14T01:21:35;5.38;;;3.42;;
61638;SDS011;47544;52.484;4.658;2023-06-14T01:21:52;6.50;;;3.30;;
61638;SDS011;47544;52.484;4.658;2023-06-14T01:22:04;8.73;;;3.55;;
61638;SDS011;47544;52.484;4.658;2023-06-14T01:22:17;8.70;;;3.40;;
61638;SDS011;47544;52.484;4.658;2023-06-14T01:22:28;7.13;;;3.15;;
61638;SDS011;47544;52.484;4.658;2023-06-14T01:22:48;6.97;;;3.33;;
61638;SDS011;47544;52.484;4.658;2023-06-14T01:23:00;5.40;;;3.35;;
61638;SDS011;47544;52.484;4.658;2023-06-14T01:23:30;6.78;;;3.42;;
61638;SDS011;47544;52.484;4.658;2023-06-14T01:23:45;7.88;;;3.53;;
61638;SDS011;47544;52.484;4.658;2023-06-14T01:24:06;7.57;;;3.42;;
61638;SDS011;47544;52.484;4.658;2023-06-14T01:24:36;6.68;;;3.28;;
61638;SDS011;47544;52.484;4.658;2023-06-14T01:24:56;6.75;;;3.40;;
61638;SDS011;47544;52.484;4.658;2023-06-14T01:25:08;6.55;;;3.28;;
61638;SDS011;47544;52.484;4.658;2023-06-14T01:25:19;5.88;;;3.00;;